Time;durP1;ratioP1;P1;durP2;ratioP2;P2;SDS_P1;SDS_P2;PMS_P1;PMS_P2;Temp;Humidity;BMP_temperature;BMP_pressure;BME280_temperature;BME280_humidity;BME280_pressure;Samples;Min_cycle;Max_cycle;Signal;HPM_P1;HPM_P2
2021/09/27 00:00:36;;;;;;;3.45;3.17;;;;;;;;;;5092138;28;20187;-85
2021/09/27 00:03:04;;;;;;;2.60;2.40;;;;;;;;;;5092261;28;20823;-85
2021/09/27 00:05:32;;;;;;;3.28;3.05;;;;;;;;;;5092310;28;20208;-85
2021/09/27 00:08:00;;;;;;;2.30;2.10;;;;;;;;;;5092377;28;20217;-85
2021/09/27 00:10:34;;;;;;;2.67;2.47;;;;;;;;;;5110383;28;20219;-85
2021/09/27 00:13:02;;;;;;;2.42;2.22;;;;;;;;;;5102907;28;20192;-85
2021/09/27 00:15:33;;;;;;;3.15;2.95;;;;;;;;;;5091644;28;20208;-86
2021/09/27 00:18:00;;;;;;;2.53;2.33;;;;;;;;;;5091870;28;20220;-86
2021/09/27 00:20:28;;;;;;;2.60;2.40;;;;;;;;;;5091992;28;20181;-86
2021/09/27 00:22:56;;;;;;;2.70;2.50;;;;;;;;;;5106498;28;20199;-83
2021/09/27 00:25:26;;;;;;;2.60;2.40;;;;;;;;;;5112252;28;20530;-83
2021/09/27 00:27:56;;;;;;;3.25;3.05;;;;;;;;;;5112123;28;20226;-83
2021/09/27 00:30:24;;;;;;;3.33;3.13;;;;;;;;;;5112074;28;20232;-84
2021/09/27 00:32:53;;;;;;;9.70;5.60;;;;;;;;;;5098072;28;20193;-83
2021/09/27 00:35:24;;;;;;;4.85;4.45;;;;;;;;;;5095772;28;20195;-83
2021/09/27 00:37:52;;;;;;;4.07;3.78;;;;;;;;;;5095066;28;20212;-83
2021/09/27 00:40:25;;;;;;;4.70;4.22;;;;;;;;;;5095952;28;20184;-83
2021/09/27 00:42:56;;;;;;;4.88;4.50;;;;;;;;;;5096479;28;20584;-83
2021/09/27 00:45:29;;;;;;;4.32;4.00;;;;;;;;;;5095847;28;20568;-84
2021/09/27 00:47:57;;;;;;;4.18;3.78;;;;;;;;;;5094623;28;20228;-83
2021/09/27 00:50:28;;;;;;;3.00;2.80;;;;;;;;;;5109253;28;20207;-82
2021/09/27 00:52:56;;;;;;;3.80;3.50;;;;;;;;;;5100979;28;20185;-82
2021/09/27 00:55:26;;;;;;;3.60;3.30;;;;;;;;;;5095448;28;20181;-83
2021/09/27 00:57:56;;;;;;;2.60;2.40;;;;;;;;;;5095330;28;20569;-82
2021/09/27 01:00:29;;;;;;;3.45;3.15;;;;;;;;;;5095351;28;20187;-83
2021/09/27 01:02:57;;;;;;;5.32;4.82;;;;;;;;;;5109476;28;20196;-82
2021/09/27 01:05:26;;;;;;;4.53;4.13;;;;;;;;;;5115095;28;20191;-82
2021/09/27 01:07:59;;;;;;;3.72;3.42;;;;;;;;;;5115448;28;20220;-83
2021/09/27 01:10:50;;;;;;;3.67;3.38;;;;;;;;;;5115422;28;20202;-83
2021/09/27 01:13:56;;;;;;;2.53;2.33;;;;;;;;;;5111072;28;20192;-83
2021/09/27 01:16:31;;;;;;;4.38;3.97;;;;;;;;;;5114670;28;20184;-82
2021/09/27 01:19:41;;;;;;;3.70;3.40;;;;;;;;;;5114845;28;20218;-83
2021/09/27 01:22:15;;;;;;;3.90;3.60;;;;;;;;;;5096196;28;20213;-83
2021/09/27 01:25:08;;;;;;;2.78;2.58;;;;;;;;;;5094885;28;20661;-83
2021/09/27 01:28:21;;;;;;;3.53;3.22;;;;;;;;;;5094583;28;20188;-83
2021/09/27 01:31:07;;;;;;;3.30;2.92;;;;;;;;;;5060631;28;20235;-83
2021/09/27 01:33:42;;;;;;;2.53;2.38;;;;;;;;;;5114036;28;20199;-84
2021/09/27 01:36:18;;;;;;;3.10;2.90;;;;;;;;;;5115002;28;20192;-83
2021/09/27 01:38:52;;;;;;;2.95;2.75;;;;;;;;;;5112028;28;20330;-83
2021/09/27 01:41:31;;;;;;;3.58;3.30;;;;;;;;;;5109504;28;20674;-83
2021/09/27 01:44:10;;;;;;;3.80;3.45;;;;;;;;;;5114819;28;20188;-83
2021/09/27 01:46:46;;;;;;;3.60;3.30;;;;;;;;;;5114503;28;20227;-84
2021/09/27 01:49:20;;;;;;;3.42;2.90;;;;;;;;;;5114725;28;20222;-84
2021/09/27 01:51:54;;;;;;;4.32;3.92;;;;;;;;;;5109609;28;20215;-84
2021/09/27 01:54:29;;;;;;;3.70;3.40;;;;;;;;;;5094106;28;20597;-84
2021/09/27 01:57:06;;;;;;;5.50;5.00;;;;;;;;;;5094605;28;20200;-84
2021/09/27 01:59:41;;;;;;;4.30;3.67;;;;;;;;;;5093863;28;20628;-84
2021/09/27 02:02:14;;;;;;;5.00;4.60;;;;;;;;;;5094124;28;20192;-84
2021/09/27 02:04:54;;;;;;;4.78;4.38;;;;;;;;;;5095123;28;20189;-85
2021/09/27 02:07:23;;;;;;;7.18;6.57;;;;;;;;;;5098162;28;20188;-84
2021/09/27 02:09:57;;;;;;;5.70;5.20;;;;;;;;;;5114654;28;20564;-85
2021/09/27 02:12:31;;;;;;;4.97;4.57;;;;;;;;;;5114095;28;20565;-84
2021/09/27 02:15:06;;;;;;;6.22;5.72;;;;;;;;;;5114471;28;20183;-84
2021/09/27 02:17:40;;;;;;;6.30;5.80;;;;;;;;;;5114372;28;20183;-84
2021/09/27 02:20:14;;;;;;;6.15;5.72;;;;;;;;;;5113865;28;20557;-85
2021/09/27 02:22:46;;;;;;;7.28;6.60;;;;;;;;;;5101062;28;20285;-85
2021/09/27 02:25:18;;;;;;;7.22;6.60;;;;;;;;;;5093650;28;20189;-85
2021/09/27 02:27:47;;;;;;;8.13;7.32;;;;;;;;;;5092709;28;20212;-85
2021/09/27 02:30:20;;;;;;;8.38;7.57;;;;;;;;;;5092146;28;20208;-84
2021/09/27 02:32:55;;;;;;;7.70;6.97;;;;;;;;;;5106552;28;20199;-84
2021/09/27 02:35:30;;;;;;;8.18;7.38;;;;;;;;;;5113545;28;20196;-84
2021/09/27 02:38:03;;;;;;;7.88;7.18;;;;;;;;;;5098758;28;20231;-85
2021/09/27 02:40:37;;;;;;;7.63;6.97;;;;;;;;;;5092824;28;20564;-85
2021/09/27 02:43:09;;;;;;;10.15;7.55;;;;;;;;;;5093707;28;20554;-84
2021/09/27 02:45:37;;;;;;;5.38;4.88;;;;;;;;;;5093359;28;20181;-84
2021/09/27 02:48:13;;;;;;;4.03;3.72;;;;;;;;;;5092769;28;20244;-84
2021/09/27 02:50:45;;;;;;;7.35;6.65;;;;;;;;;;5093172;28;20219;-84
2021/09/27 02:53:14;;;;;;;8.65;6.57;;;;;;;;;;5103373;28;20192;-83
2021/09/27 02:56:03;;;;;;;6.15;5.65;;;;;;;;;;5113642;28;20191;-85
2021/09/27 02:58:39;;;;;;;4.72;4.32;;;;;;;;;;5113762;28;20223;-84
2021/09/27 03:01:14;;;;;;;5.57;4.43;;;;;;;;;;5113846;28;20176;-85
2021/09/27 03:03:56;;;;;;;5.03;4.57;;;;;;;;;;5113567;27;20186;-84
2021/09/27 03:06:38;;;;;;;4.95;4.55;;;;;;;;;;5113681;28;20207;-84
2021/09/27 03:09:10;;;;;;;7.97;7.18;;;;;;;;;;5113200;28;20231;-84
2021/09/27 03:12:06;;;;;;;8.02;7.28;;;;;;;;;;5113083;28;20211;-84
2021/09/27 03:14:52;;;;;;;7.22;6.63;;;;;;;;;;5111080;28;20205;-85
2021/09/27 03:17:26;;;;;;;9.80;7.80;;;;;;;;;;5113037;28;20206;-85
2021/09/27 03:20:12;;;;;;;9.55;8.55;;;;;;;;;;5113118;28;20564;-85
2021/09/27 03:22:50;;;;;;;10.45;9.40;;;;;;;;;;5113166;28;20211;-84
2021/09/27 03:25:30;;;;;;;7.32;6.63;;;;;;;;;;5113363;28;20606;-84
2021/09/27 03:28:07;;;;;;;8.02;7.22;;;;;;;;;;5113199;28;20223;-84
2021/09/27 03:30:40;;;;;;;8.23;7.47;;;;;;;;;;5113141;28;20553;-85
2021/09/27 03:33:21;;;;;;;11.20;10.15;;;;;;;;;;5113174;28;20210;-85
2021/09/27 03:36:04;;;;;;;7.80;7.10;;;;;;;;;;5113060;28;20188;-84
2021/09/27 03:38:41;;;;;;;8.77;7.97;;;;;;;;;;5113061;28;20223;-84
2021/09/27 03:41:17;;;;;;;8.93;8.05;;;;;;;;;;5092723;28;20180;-84
2021/09/27 03:43:57;;;;;;;9.93;9.02;;;;;;;;;;5092449;28;20865;-85
2021/09/27 03:46:36;;;;;;;10.13;9.18;;;;;;;;;;5092362;28;20231;-85
2021/09/27 03:49:12;;;;;;;10.35;9.35;;;;;;;;;;5092327;28;20648;-85
2021/09/27 03:51:49;;;;;;;13.23;9.50;;;;;;;;;;5092240;28;20693;-84
2021/09/27 03:54:25;;;;;;;11.32;10.25;;;;;;;;;;5092628;28;20184;-84
2021/09/27 03:56:58;;;;;;;8.80;7.90;;;;;;;;;;5093013;28;20199;-84
2021/09/27 03:59:32;;;;;;;10.77;9.77;;;;;;;;;;5092420;28;20354;-85
2021/09/27 04:02:05;;;;;;;8.40;7.60;;;;;;;;;;5092276;28;20576;-84
2021/09/27 04:04:39;;;;;;;9.02;8.13;;;;;;;;;;5107688;28;20275;-84
2021/09/27 04:07:21;;;;;;;12.85;11.55;;;;;;;;;;5112763;28;20199;-84
2021/09/27 04:10:02;;;;;;;6.72;6.15;;;;;;;;;;5116277;28;20176;-84
2021/09/27 04:12:38;;;;;;;7.70;6.90;;;;;;;;;;5096807;28;20214;-84
2021/09/27 04:15:17;;;;;;;8.30;7.38;;;;;;;;;;5096655;28;20716;-84
2021/09/27 04:17:59;;;;;;;6.93;6.32;;;;;;;;;;5096522;28;20224;-84
2021/09/27 04:20:51;;;;;;;7.28;6.38;;;;;;;;;;5096829;28;20244;-85
2021/09/27 04:23:27;;;;;;;5.82;5.30;;;;;;;;;;5096544;28;20200;-85
2021/09/27 04:26:06;;;;;;;5.38;4.88;;;;;;;;;;5096094;28;20642;-84
2021/09/27 04:29:06;;;;;;;3.70;3.40;;;;;;;;;;5096381;28;20224;-84
2021/09/27 04:31:41;;;;;;;5.07;4.68;;;;;;;;;;5095900;28;20678;-84
2021/09/27 04:34:32;;;;;;;4.82;4.32;;;;;;;;;;5097654;28;20190;-85
2021/09/27 04:37:01;;;;;;;7.20;5.85;;;;;;;;;;5116503;28;20605;-85
2021/09/27 04:39:36;;;;;;;7.72;7.03;;;;;;;;;;5116303;28;20599;-84
2021/09/27 04:42:40;;;;;;;7.28;6.68;;;;;;;;;;5115786;28;20263;-85
2021/09/27 04:45:20;;;;;;;5.45;4.95;;;;;;;;;;5116276;28;20242;-85
2021/09/27 04:47:57;;;;;;;4.53;4.20;;;;;;;;;;5115709;28;20235;-84
2021/09/27 04:50:39;;;;;;;7.18;6.50;;;;;;;;;;5116933;28;20194;-84
2021/09/27 04:53:35;;;;;;;7.40;6.70;;;;;;;;;;5120983;28;20215;-84
2021/09/27 04:56:28;;;;;;;7.68;6.90;;;;;;;;;;5116016;28;20204;-84
2021/09/27 04:59:08;;;;;;;8.70;7.78;;;;;;;;;;5116258;28;20220;-84
2021/09/27 05:02:10;;;;;;;7.28;6.68;;;;;;;;;;5116028;28;20188;-84
2021/09/27 05:04:51;;;;;;;5.30;4.65;;;;;;;;;;5116009;28;20180;-83
2021/09/27 05:07:44;;;;;;;7.20;6.60;;;;;;;;;;5116266;28;20199;-83
2021/09/27 05:10:35;;;;;;;8.82;8.05;;;;;;;;;;5114570;28;20578;-84
2021/09/27 05:13:18;;;;;;;5.43;4.93;;;;;;;;;;5095057;28;20341;-85
2021/09/27 05:16:04;;;;;;;4.35;3.92;;;;;;;;;;5094957;28;20700;-83
2021/09/27 05:19:12;;;;;;;4.47;3.53;;;;;;;;;;5094952;28;20216;-84
2021/09/27 05:22:04;;;;;;;3.28;3.05;;;;;;;;;;5095114;28;20666;-84
2021/09/27 05:24:59;;;;;;;4.40;4.00;;;;;;;;;;5109069;28;20200;-85
2021/09/27 05:27:58;;;;;;;8.73;7.88;;;;;;;;;;5101284;28;20208;-84
2021/09/27 05:30:41;;;;;;;4.10;3.70;;;;;;;;;;5105457;28;20212;-84
2021/09/27 05:33:17;;;;;;;4.63;4.22;;;;;;;;;;5094701;28;20227;-84
2021/09/27 05:36:12;;;;;;;4.40;4.00;;;;;;;;;;5114752;28;20191;-85
2021/09/27 05:38:48;;;;;;;4.22;3.85;;;;;;;;;;5114849;28;20231;-85
2021/09/27 05:41:23;;;;;;;4.50;4.10;;;;;;;;;;5115250;28;20179;-85
2021/09/27 05:44:07;;;;;;;4.82;4.43;;;;;;;;;;5115175;28;20548;-84
2021/09/27 05:46:57;;;;;;;5.13;4.68;;;;;;;;;;5104110;28;20239;-84
2021/09/27 05:49:31;;;;;;;5.82;5.20;;;;;;;;;;5094184;28;20226;-84
2021/09/27 05:52:03;;;;;;;4.97;4.32;;;;;;;;;;5094978;28;20187;-85
2021/09/27 05:54:39;;;;;;;3.90;3.60;;;;;;;;;;5093374;28;20191;-85
2021/09/27 05:57:11;;;;;;;4.88;4.47;;;;;;;;;;5094479;28;20188;-85
2021/09/27 05:59:47;;;;;;;5.43;4.93;;;;;;;;;;5093998;28;20599;-85
2021/09/27 06:02:31;;;;;;;4.15;3.85;;;;;;;;;;5094432;28;20184;-83
2021/09/27 06:05:11;;;;;;;7.35;6.70;;;;;;;;;;5094152;28;20631;-84
2021/09/27 06:07:44;;;;;;;7.60;6.90;;;;;;;;;;5093837;28;20212;-84
2021/09/27 06:10:19;;;;;;;5.18;4.68;;;;;;;;;;5094087;28;20673;-86
2021/09/27 06:12:53;;;;;;;3.83;3.53;;;;;;;;;;5114232;28;20210;-84
2021/09/27 06:15:22;;;;;;;7.47;5.25;;;;;;;;;;5114516;28;20176;-87
2021/09/27 06:18:05;;;;;;;6.70;6.10;;;;;;;;;;5114397;28;20218;-84
2021/09/27 06:20:48;;;;;;;6.20;5.60;;;;;;;;;;5114163;28;20588;-84
2021/09/27 06:23:38;;;;;;;5.53;5.05;;;;;;;;;;5114126;28;20660;-84
2021/09/27 06:26:09;;;;;;;5.05;4.65;;;;;;;;;;5109967;28;20181;-85
2021/09/27 06:28:47;;;;;;;3.95;3.65;;;;;;;;;;5093833;28;20228;-84
2021/09/27 06:31:20;;;;;;;5.05;4.65;;;;;;;;;;5092784;28;20180;-84
2021/09/27 06:33:53;;;;;;;4.80;4.38;;;;;;;;;;5105908;28;20971;-84
2021/09/27 06:36:28;;;;;;;4.45;4.05;;;;;;;;;;5113743;28;20187;-84
2021/09/27 06:39:00;;;;;;;3.80;3.50;;;;;;;;;;5113741;28;20226;-84
2021/09/27 06:41:29;;;;;;;4.55;4.15;;;;;;;;;;5112245;28;20208;-84
2021/09/27 06:43:58;;;;;;;3.67;3.38;;;;;;;;;;5110969;28;20204;-85
2021/09/27 06:46:28;;;;;;;6.10;5.53;;;;;;;;;;5113250;28;20240;-84
2021/09/27 06:48:55;;;;;;;4.55;4.15;;;;;;;;;;5113479;28;20220;-84
2021/09/27 06:51:24;;;;;;;5.68;5.18;;;;;;;;;;5113114;28;20188;-83
2021/09/27 06:53:52;;;;;;;5.03;4.53;;;;;;;;;;5113004;28;20219;-84
2021/09/27 06:56:19;;;;;;;4.90;4.50;;;;;;;;;;5112508;27;20955;-83
2021/09/27 06:58:46;;;;;;;4.25;3.95;;;;;;;;;;5112959;28;20238;-84
2021/09/27 07:01:14;;;;;;;3.70;3.40;;;;;;;;;;5113434;28;20183;-84
2021/09/27 07:03:41;;;;;;;4.53;4.15;;;;;;;;;;5112985;28;20196;-84
2021/09/27 07:06:09;;;;;;;3.53;3.22;;;;;;;;;;5113101;28;20205;-83
2021/09/27 07:08:38;;;;;;;3.80;3.50;;;;;;;;;;5108313;28;20216;-83
2021/09/27 07:11:05;;;;;;;3.55;3.25;;;;;;;;;;5100919;28;20207;-83
2021/09/27 07:13:33;;;;;;;3.20;3.00;;;;;;;;;;5093106;28;20208;-84
2021/09/27 07:16:00;;;;;;;5.00;4.47;;;;;;;;;;5093052;28;20180;-84
2021/09/27 07:18:28;;;;;;;3.97;3.67;;;;;;;;;;5091946;28;20224;-84
2021/09/27 07:20:58;;;;;;;3.60;3.30;;;;;;;;;;5091871;28;20693;-84
2021/09/27 07:23:26;;;;;;;6.25;5.45;;;;;;;;;;5092967;28;20187;-84
2021/09/27 07:25:55;;;;;;;4.97;4.57;;;;;;;;;;5092849;28;20655;-85
2021/09/27 07:28:22;;;;;;;5.78;5.25;;;;;;;;;;5092712;28;20219;-84
2021/09/27 07:30:50;;;;;;;5.43;4.95;;;;;;;;;;5092831;28;20583;-84
2021/09/27 07:33:19;;;;;;;5.75;5.25;;;;;;;;;;5092634;28;20227;-84
2021/09/27 07:35:47;;;;;;;5.03;4.55;;;;;;;;;;5093061;28;20249;-85
2021/09/27 07:38:15;;;;;;;4.53;4.15;;;;;;;;;;5093697;28;20216;-84
2021/09/27 07:40:43;;;;;;;4.38;3.97;;;;;;;;;;5092273;28;20184;-84
2021/09/27 07:43:12;;;;;;;5.57;4.82;;;;;;;;;;5091274;28;20208;-84
2021/09/27 07:45:39;;;;;;;6.15;5.55;;;;;;;;;;5092451;28;20177;-84
2021/09/27 07:48:13;;;;;;;5.38;4.88;;;;;;;;;;5092329;28;20232;-84
2021/09/27 07:50:42;;;;;;;6.32;5.72;;;;;;;;;;5092695;28;20180;-85
2021/09/27 07:53:10;;;;;;;6.32;5.72;;;;;;;;;;5091725;28;20180;-85
2021/09/27 07:55:37;;;;;;;9.27;8.38;;;;;;;;;;5092398;28;20200;-84
2021/09/27 07:58:05;;;;;;;7.28;6.35;;;;;;;;;;5092165;28;20231;-84
2021/09/27 08:00:35;;;;;;;8.60;7.47;;;;;;;;;;5092397;28;20631;-84
2021/09/27 08:03:02;;;;;;;10.73;7.90;;;;;;;;;;5092379;28;20184;-85
2021/09/27 08:05:33;;;;;;;7.80;7.00;;;;;;;;;;5092321;28;20205;-83
2021/09/27 08:08:01;;;;;;;5.22;4.78;;;;;;;;;;5093569;28;20212;-85
2021/09/27 08:10:30;;;;;;;5.32;4.82;;;;;;;;;;5104741;28;20191;-84
2021/09/27 08:12:58;;;;;;;5.97;5.47;;;;;;;;;;5111044;28;20239;-84
2021/09/27 08:15:29;;;;;;;4.75;4.35;;;;;;;;;;5109344;28;20207;-85
2021/09/27 08:18:01;;;;;;;5.25;4.75;;;;;;;;;;5093827;28;20691;-86
2021/09/27 08:20:33;;;;;;;4.93;4.10;;;;;;;;;;5112797;28;20188;-85
2021/09/27 08:23:01;;;;;;;5.18;4.57;;;;;;;;;;5112717;28;20192;-84
2021/09/27 08:25:29;;;;;;;7.05;5.53;;;;;;;;;;5112703;28;20180;-85
2021/09/27 08:27:59;;;;;;;6.90;6.20;;;;;;;;;;5106683;28;20208;-86
2021/09/27 08:30:31;;;;;;;6.30;5.70;;;;;;;;;;5104314;28;20192;-84
2021/09/27 08:33:00;;;;;;;4.90;4.40;;;;;;;;;;5100410;28;20188;-85
2021/09/27 08:35:29;;;;;;;5.45;4.60;;;;;;;;;;5099310;28;20579;-85
2021/09/27 08:37:57;;;;;;;7.95;6.70;;;;;;;;;;5095970;28;20219;-85
2021/09/27 08:40:48;;;;;;;6.47;5.03;;;;;;;;;;5092242;28;20189;-85
2021/09/27 08:43:24;;;;;;;7.03;6.32;;;;;;;;;;5092143;28;20208;-86
2021/09/27 08:45:53;;;;;;;6.93;6.18;;;;;;;;;;5099046;28;20176;-87
2021/09/27 08:48:40;;;;;;;7.03;6.43;;;;;;;;;;5096724;28;20231;-86
2021/09/27 08:51:07;;;;;;;7.38;6.65;;;;;;;;;;5098477;28;20189;-86
2021/09/27 08:53:38;;;;;;;7.78;6.95;;;;;;;;;;5099278;28;20199;-86
2021/09/27 08:56:14;;;;;;;6.45;5.85;;;;;;;;;;5115281;28;20191;-86
2021/09/27 08:58:50;;;;;;;6.30;5.70;;;;;;;;;;5109055;28;20231;-86
2021/09/27 09:01:23;;;;;;;8.02;7.22;;;;;;;;;;5104364;28;20552;-84
2021/09/27 09:03:59;;;;;;;7.95;6.35;;;;;;;;;;5095311;28;20275;-85
2021/09/27 09:06:30;;;;;;;6.03;5.30;;;;;;;;;;5097822;28;20200;-86
2021/09/27 09:09:03;;;;;;;6.88;5.05;;;;;;;;;;5114842;28;20223;-85
2021/09/27 09:11:39;;;;;;;5.07;4.68;;;;;;;;;;5095689;28;20184;-85
2021/09/27 09:14:16;;;;;;;4.32;4.03;;;;;;;;;;5103881;28;20210;-85
2021/09/27 09:16:46;;;;;;;5.68;5.00;;;;;;;;;;5100543;28;20249;-86
2021/09/27 09:19:21;;;;;;;4.72;4.35;;;;;;;;;;5097977;28;20606;-85
2021/09/27 09:21:52;;;;;;;3.65;3.35;;;;;;;;;;5094883;28;20271;-85
2021/09/27 09:24:23;;;;;;;7.20;5.53;;;;;;;;;;5095118;28;20191;-85
2021/09/27 09:26:54;;;;;;;5.20;4.25;;;;;;;;;;5101794;28;20191;-84
2021/09/27 09:29:26;;;;;;;5.70;5.20;;;;;;;;;;5096048;28;20216;-84
2021/09/27 09:31:56;;;;;;;6.88;6.20;;;;;;;;;;5095018;28;20176;-85
2021/09/27 09:34:35;;;;;;;6.47;5.85;;;;;;;;;;5094592;28;20577;-85
2021/09/27 09:37:08;;;;;;;6.38;5.88;;;;;;;;;;5100550;28;20537;-84
2021/09/27 09:39:39;;;;;;;7.95;7.22;;;;;;;;;;5097830;28;20690;-85
2021/09/27 09:42:24;;;;;;;6.38;5.25;;;;;;;;;;5094793;28;20185;-85
2021/09/27 09:44:54;;;;;;;7.53;6.50;;;;;;;;;;5103704;28;20195;-85
2021/09/27 09:47:25;;;;;;;7.00;6.28;;;;;;;;;;5114598;28;20642;-85
2021/09/27 09:49:59;;;;;;;5.78;5.20;;;;;;;;;;5110773;28;20189;-84
2021/09/27 09:52:35;;;;;;;5.40;4.88;;;;;;;;;;5094351;28;20196;-83
2021/09/27 09:55:17;;;;;;;4.68;4.28;;;;;;;;;;5093784;28;20208;-85
2021/09/27 09:57:56;;;;;;;4.72;4.38;;;;;;;;;;5096570;28;20223;-84
2021/09/27 10:00:43;;;;;;;7.53;5.63;;;;;;;;;;5114366;28;20183;-84
2021/09/27 10:03:19;;;;;;;5.50;4.93;;;;;;;;;;5114445;28;20191;-84
2021/09/27 10:05:55;;;;;;;5.75;5.25;;;;;;;;;;5114234;28;20184;-82
2021/09/27 10:08:26;;;;;;;5.57;4.97;;;;;;;;;;5114336;28;20582;-83
2021/09/27 10:10:58;;;;;;;4.85;4.45;;;;;;;;;;5114486;28;20275;-85
2021/09/27 10:13:42;;;;;;;5.00;4.50;;;;;;;;;;5114644;28;20180;-84
2021/09/27 10:16:17;;;;;;;4.97;4.57;;;;;;;;;;5114394;28;20256;-84
2021/09/27 10:18:46;;;;;;;4.75;4.38;;;;;;;;;;5114692;28;20215;-86
2021/09/27 10:21:33;;;;;;;4.95;4.50;;;;;;;;;;5114115;28;20180;-84
2021/09/27 10:24:19;;;;;;;4.55;4.15;;;;;;;;;;5114323;28;20180;-84
2021/09/27 10:26:51;;;;;;;4.85;4.45;;;;;;;;;;5114802;28;20203;-84
2021/09/27 10:29:23;;;;;;;4.00;3.60;;;;;;;;;;5114379;28;20220;-85
2021/09/27 10:31:58;;;;;;;4.68;3.92;;;;;;;;;;5114359;28;20279;-85
2021/09/27 10:34:28;;;;;;;3.78;3.50;;;;;;;;;;5114407;28;20190;-84
2021/09/27 10:37:06;;;;;;;5.72;5.22;;;;;;;;;;5114444;28;20638;-84
2021/09/27 10:39:33;;;;;;;4.22;3.88;;;;;;;;;;5113921;28;20230;-83
2021/09/27 10:42:05;;;;;;;5.85;5.25;;;;;;;;;;5114085;28;20180;-84
2021/09/27 10:44:40;;;;;;;5.55;4.90;;;;;;;;;;5113597;28;20657;-85
2021/09/27 10:47:12;;;;;;;5.05;4.63;;;;;;;;;;5113767;28;20591;-85
2021/09/27 10:49:45;;;;;;;4.47;4.07;;;;;;;;;;5113878;28;20557;-85
2021/09/27 10:52:36;;;;;;;5.90;5.30;;;;;;;;;;5113860;28;20217;-85
2021/09/27 10:55:15;;;;;;;5.55;4.93;;;;;;;;;;5113717;28;20211;-85
2021/09/27 10:57:52;;;;;;;5.72;5.22;;;;;;;;;;5113629;28;20219;-84
2021/09/27 11:00:33;;;;;;;5.35;4.63;;;;;;;;;;5113617;28;20183;-85
2021/09/27 11:03:09;;;;;;;5.53;5.03;;;;;;;;;;5113614;28;20184;-84
2021/09/27 11:05:50;;;;;;;4.85;4.45;;;;;;;;;;5113321;28;20630;-84
2021/09/27 11:08:48;;;;;;;5.30;4.90;;;;;;;;;;5113649;28;20233;-84
2021/09/27 11:11:24;;;;;;;4.85;4.35;;;;;;;;;;5113400;28;20188;-85
2021/09/27 11:13:51;;;;;;;4.75;4.35;;;;;;;;;;5113601;28;20188;-84
2021/09/27 11:16:25;;;;;;;4.72;4.32;;;;;;;;;;5113116;28;20200;-84
2021/09/27 11:18:58;;;;;;;5.53;5.03;;;;;;;;;;5112666;28;20220;-85
2021/09/27 11:21:45;;;;;;;4.40;4.00;;;;;;;;;;5113137;28;20202;-86
2021/09/27 11:25:12;;;;;;;4.03;3.72;;;;;;;;;;5113132;28;20184;-85
2021/09/27 11:27:40;;;;;;;4.30;3.90;;;;;;;;;;5090054;28;20206;-85
2021/09/27 11:30:40;;;;;;;5.20;4.70;;;;;;;;;;5113153;28;20184;-85
2021/09/27 11:33:39;;;;;;;5.10;4.05;;;;;;;;;;5112808;28;20669;-85
2021/09/27 11:36:24;;;;;;;4.13;3.83;;;;;;;;;;5112776;28;20211;-86
2021/09/27 11:39:15;;;;;;;3.83;3.38;;;;;;;;;;5113056;28;20577;-85
2021/09/27 11:42:34;;;;;;;5.63;5.10;;;;;;;;;;5113081;28;20203;-86
2021/09/27 11:45:41;;;;;;;3.75;3.45;;;;;;;;;;5112838;28;20204;-86
2021/09/27 11:48:12;;;;;;;6.38;5.88;;;;;;;;;;5112393;28;20601;-86
2021/09/27 11:51:05;;;;;;;4.97;4.07;;;;;;;;;;5108626;28;20626;-82
2021/09/27 11:53:48;;;;;;;4.60;3.85;;;;;;;;;;5112846;28;20188;-85
2021/09/27 11:56:21;;;;;;;4.43;4.13;;;;;;;;;;5111512;28;20223;-82
2021/09/27 11:58:56;;;;;;;5.70;5.20;;;;;;;;;;5112698;28;20227;-85
2021/09/27 12:01:37;;;;;;;5.22;4.82;;;;;;;;;;5103075;28;20196;-83
2021/09/27 12:04:19;;;;;;;4.10;3.78;;;;;;;;;;5091872;28;20705;-84
2021/09/27 12:06:55;;;;;;;4.88;4.38;;;;;;;;;;5092182;28;20185;-84
2021/09/27 12:09:31;;;;;;;5.68;5.18;;;;;;;;;;5092103;28;20227;-83
2021/09/27 12:12:01;;;;;;;4.15;3.85;;;;;;;;;;5092375;28;20188;-85
2021/09/27 12:14:39;;;;;;;4.45;4.10;;;;;;;;;;5102449;28;20721;-84
2021/09/27 12:17:09;;;;;;;4.45;4.05;;;;;;;;;;5106457;28;20215;-84
2021/09/27 12:19:49;;;;;;;3.83;3.53;;;;;;;;;;5105376;28;20223;-84
2021/09/27 12:22:22;;;;;;;4.15;3.80;;;;;;;;;;5094881;28;20200;-84
2021/09/27 12:24:52;;;;;;;5.10;4.57;;;;;;;;;;5091977;28;20193;-85
2021/09/27 12:27:22;;;;;;;3.85;3.55;;;;;;;;;;5092173;28;20221;-85
2021/09/27 12:29:57;;;;;;;4.05;3.78;;;;;;;;;;5093365;28;20674;-85
2021/09/27 12:32:29;;;;;;;4.53;4.20;;;;;;;;;;5113372;28;20256;-85
2021/09/27 12:35:00;;;;;;;3.45;3.15;;;;;;;;;;5115215;28;20568;-86
2021/09/27 12:37:36;;;;;;;4.40;4.00;;;;;;;;;;5116317;28;20208;-86
2021/09/27 12:40:08;;;;;;;4.40;4.10;;;;;;;;;;5115786;28;20203;-85
2021/09/27 12:42:40;;;;;;;10.13;3.67;;;;;;;;;;5114845;28;20565;-84
2021/09/27 12:45:17;;;;;;;3.55;3.25;;;;;;;;;;5102950;28;20241;-84
2021/09/27 12:47:46;;;;;;;3.72;3.42;;;;;;;;;;5095019;28;20223;-85
2021/09/27 12:50:15;;;;;;;3.85;3.55;;;;;;;;;;5115012;28;20188;-84
2021/09/27 12:52:47;;;;;;;3.95;3.65;;;;;;;;;;5094221;28;20208;-86
2021/09/27 12:55:19;;;;;;;3.67;3.38;;;;;;;;;;5110639;28;20200;-85
2021/09/27 12:57:49;;;;;;;3.17;2.97;;;;;;;;;;5098566;28;20228;-85
2021/09/27 13:00:27;;;;;;;3.88;3.58;;;;;;;;;;5102629;28;20200;-86
2021/09/27 13:02:54;;;;;;;4.47;4.18;;;;;;;;;;5094444;28;20204;-86
2021/09/27 13:05:25;;;;;;;5.90;4.68;;;;;;;;;;5095117;28;20216;-85
2021/09/27 13:07:55;;;;;;;3.88;3.58;;;;;;;;;;5098854;28;20208;-85
2021/09/27 13:10:32;;;;;;;4.57;4.18;;;;;;;;;;5114063;28;20658;-85
2021/09/27 13:13:14;;;;;;;3.20;3.00;;;;;;;;;;5100689;28;20188;-85
2021/09/27 13:15:46;;;;;;;3.97;3.67;;;;;;;;;;5105594;28;20658;-85
2021/09/27 13:18:38;;;;;;;2.63;2.42;;;;;;;;;;5108906;28;20289;-84
2021/09/27 13:21:11;;;;;;;2.72;2.53;;;;;;;;;;5099542;28;20200;-85
2021/09/27 13:23:43;;;;;;;3.38;3.17;;;;;;;;;;5098382;28;20646;-86
2021/09/27 13:26:18;;;;;;;2.95;2.75;;;;;;;;;;5113923;28;20678;-86
2021/09/27 13:28:49;;;;;;;3.88;3.47;;;;;;;;;;5103200;28;20245;-85
2021/09/27 13:31:24;;;;;;;3.33;3.05;;;;;;;;;;5114875;28;20214;-87
2021/09/27 13:33:56;;;;;;;3.75;3.45;;;;;;;;;;5101234;28;20219;-86
2021/09/27 13:36:38;;;;;;;4.30;3.50;;;;;;;;;;5104132;28;20287;-85
2021/09/27 13:39:17;;;;;;;3.13;2.92;;;;;;;;;;5117117;28;20211;-84
2021/09/27 13:41:50;;;;;;;3.10;2.90;;;;;;;;;;5116797;28;20335;-84
2021/09/27 13:48:13;;;;;;;3.33;3.03;;;;;;;;;;5040233;28;20368;-84
2021/09/27 13:50:42;;;;;;;2.70;2.50;;;;;;;;;;5114246;28;20290;-84
2021/09/27 13:53:13;;;;;;;2.90;2.67;;;;;;;;;;5106130;28;20554;-84
2021/09/27 13:55:41;;;;;;;2.90;2.70;;;;;;;;;;5096187;28;20189;-84
2021/09/27 13:58:08;;;;;;;2.88;2.67;;;;;;;;;;5114327;28;20230;-86
2021/09/27 14:00:36;;;;;;;2.90;2.70;;;;;;;;;;5114046;28;20180;-86
2021/09/27 14:03:04;;;;;;;3.42;3.10;;;;;;;;;;5113982;28;20204;-86
2021/09/27 14:05:34;;;;;;;2.90;2.70;;;;;;;;;;5114501;28;20172;-85
2021/09/27 14:08:07;;;;;;;2.70;2.50;;;;;;;;;;5113784;28;20578;-85
2021/09/27 14:10:36;;;;;;;2.90;2.70;;;;;;;;;;5114532;28;20188;-86
2021/09/27 14:13:04;;;;;;;2.65;2.45;;;;;;;;;;5114609;28;20278;-85
2021/09/27 14:15:33;;;;;;;2.55;2.40;;;;;;;;;;5115467;28;20199;-87
2021/09/27 14:18:00;;;;;;;2.90;2.70;;;;;;;;;;5114713;28;20230;-86
2021/09/27 14:20:28;;;;;;;2.90;2.65;;;;;;;;;;5114024;28;20179;-87
2021/09/27 14:22:58;;;;;;;2.90;2.70;;;;;;;;;;5110342;28;20207;-86
2021/09/27 14:25:25;;;;;;;2.70;2.50;;;;;;;;;;5093865;28;20214;-87
2021/09/27 14:27:53;;;;;;;2.63;2.42;;;;;;;;;;5093290;28;20225;-87
2021/09/27 14:30:22;;;;;;;3.63;3.33;;;;;;;;;;5107491;28;20204;-87
2021/09/27 14:32:49;;;;;;;4.20;3.90;;;;;;;;;;5113677;28;20221;-86
2021/09/27 14:35:17;;;;;;;3.15;2.90;;;;;;;;;;5113914;28;20202;-85
2021/09/27 14:37:45;;;;;;;3.45;3.25;;;;;;;;;;5114077;28;20235;-86
2021/09/27 14:40:17;;;;;;;3.15;2.95;;;;;;;;;;5114086;28;20579;-86
2021/09/27 14:42:45;;;;;;;3.53;3.22;;;;;;;;;;5112640;28;20184;-86
2021/09/27 14:45:14;;;;;;;3.10;2.90;;;;;;;;;;5113602;28;20187;-86
2021/09/27 14:47:43;;;;;;;2.90;2.70;;;;;;;;;;5113732;28;20239;-86
2021/09/27 14:50:14;;;;;;;3.15;2.85;;;;;;;;;;5113851;28;20214;-87
2021/09/27 14:52:42;;;;;;;2.92;2.72;;;;;;;;;;5093733;28;20188;-84
2021/09/27 14:55:16;;;;;;;2.20;1.98;;;;;;;;;;5100203;28;20187;-86
2021/09/27 14:57:44;;;;;;;2.28;2.08;;;;;;;;;;5113718;28;20238;-86
2021/09/27 15:00:16;;;;;;;2.30;2.15;;;;;;;;;;5113934;28;20188;-87
2021/09/27 15:02:43;;;;;;;3.05;2.85;;;;;;;;;;5093995;28;20200;-85
2021/09/27 15:05:12;;;;;;;2.58;2.38;;;;;;;;;;5099042;28;20207;-85
2021/09/27 15:07:40;;;;;;;2.97;2.60;;;;;;;;;;5113375;28;20187;-87
2021/09/27 15:10:14;;;;;;;2.30;2.13;;;;;;;;;;5113606;28;20227;-85
2021/09/27 15:12:42;;;;;;;3.08;2.88;;;;;;;;;;5101642;28;20192;-87
2021/09/27 15:15:13;;;;;;;2.97;2.78;;;;;;;;;;5110339;28;20188;-86
2021/09/27 15:17:41;;;;;;;2.50;2.33;;;;;;;;;;5098982;28;20224;-85
2021/09/27 15:20:12;;;;;;;2.33;2.15;;;;;;;;;;5100086;28;20547;-85
2021/09/27 15:22:41;;;;;;;2.83;2.63;;;;;;;;;;5098033;28;20189;-85
2021/09/27 15:25:18;;;;;;;2.20;2.10;;;;;;;;;;5092670;28;20204;-84
2021/09/27 15:27:46;;;;;;;2.97;2.67;;;;;;;;;;5099587;28;20218;-85
2021/09/27 15:30:14;;;;;;;2.72;2.53;;;;;;;;;;5113820;28;20196;-84
2021/09/27 15:32:42;;;;;;;3.85;3.55;;;;;;;;;;5097486;28;20671;-85
2021/09/27 15:35:11;;;;;;;3.00;2.70;;;;;;;;;;5105425;28;20177;-85